Time;durP1;ratioP1;P1;durP2;ratioP2;P2;SDS_P1;SDS_P2;PMS_P1;PMS_P2;Temp;Humidity;BMP_temperature;BMP_pressure;BME280_temperature;BME280_humidity;BME280_pressure;Samples;Min_cycle;Max_cycle;Signal;HPM_P1;HPM_P2
2022/03/29 00:00:27;;;;;;;;;44.25;31.75;;;;;16.18;39.48;101060.19;4978188;28;46425;-61
2022/03/29 00:02:53;;;;;;;;;32.00;29.00;;;;;16.18;39.31;101058.41;4977777;28;45283;-60
2022/03/29 00:05:18;;;;;;;;;42.50;29.00;;;;;16.20;39.22;101060.97;4978065;28;45228;-60
2022/03/29 00:07:44;;;;;;;;;43.50;31.00;;;;;16.15;39.30;101047.22;4977838;28;46038;-59
2022/03/29 00:10:10;;;;;;;;;39.00;29.75;;;;;16.18;39.30;101044.47;4975531;28;45812;-60
2022/03/29 00:12:36;;;;;;;;;40.50;32.50;;;;;16.16;39.16;101035.81;4977854;28;45469;-60
2022/03/29 00:15:06;;;;;;;;;33.50;25.75;;;;;16.12;39.36;101025.47;4977969;28;45840;-60
2022/03/29 00:17:32;;;;;;;;;47.75;35.25;;;;;16.18;39.40;101033.97;4977831;28;45185;-60
2022/03/29 00:19:58;;;;;;;;;42.00;32.00;;;;;16.15;39.55;101026.25;4977900;28;45475;-60
2022/03/29 00:22:23;;;;;;;;;47.50;34.25;;;;;16.12;39.29;101024.63;4978835;28;46188;-60
2022/03/29 00:24:49;;;;;;;;;38.50;32.00;;;;;16.09;39.33;101017.75;4977918;28;45576;-60
2022/03/29 00:27:15;;;;;;;;;33.25;31.50;;;;;16.08;39.81;101015.19;4977907;28;45324;-60
2022/03/29 00:29:40;;;;;;;;;39.25;31.75;;;;;16.06;39.44;101011.81;4965703;28;45379;-60
2022/03/29 00:32:06;;;;;;;;;40.50;33.25;;;;;16.00;39.88;101002.41;4976647;28;45385;-59
2022/03/29 00:34:32;;;;;;;;;42.25;32.25;;;;;16.03;39.83;100998.84;4977844;28;45912;-61
2022/03/29 00:36:57;;;;;;;;;40.00;33.25;;;;;16.01;39.82;101004.13;4976030;28;45268;-61
2022/03/29 00:39:22;;;;;;;;;44.50;33.00;;;;;15.97;40.01;100989.47;4977740;28;46495;-61
2022/03/29 00:41:48;;;;;;;;;53.75;35.75;;;;;15.97;39.81;100989.47;4977534;28;45460;-61
2022/03/29 00:44:15;;;;;;;;;48.25;37.50;;;;;15.95;39.88;100985.22;4977783;28;45332;-61
2022/03/29 00:46:41;;;;;;;;;52.50;38.50;;;;;15.93;40.26;100984.44;4977328;28;45186;-61
2022/03/29 00:49:07;;;;;;;;;49.25;35.25;;;;;15.90;40.20;100977.56;4977693;28;45409;-61
2022/03/29 00:51:33;;;;;;;;;51.00;39.00;;;;;15.89;40.27;100975.03;4977015;28;46626;-61
2022/03/29 00:53:59;;;;;;;;;45.75;36.75;;;;;15.88;40.13;100974.16;4977354;28;45443;-61
2022/03/29 00:56:24;;;;;;;;;50.75;35.00;;;;;15.84;40.17;100964.75;4977038;28;45372;-61
2022/03/29 00:58:50;;;;;;;;;41.00;34.25;;;;;15.82;40.52;100962.22;4977602;28;45375;-61
2022/03/29 01:01:16;;;;;;;;;31.75;25.50;;;;;15.79;40.28;100969.34;4977037;28;46069;-61
2022/03/29 01:03:41;;;;;;;;;39.00;31.50;;;;;15.74;40.14;100958.22;4977194;28;45868;-61
2022/03/29 01:06:08;;;;;;;;;31.00;29.75;;;;;15.71;40.73;100956.59;4977168;28;45624;-61
2022/03/29 01:08:35;;;;;;;;;36.75;31.75;;;;;15.67;40.27;100952.41;4977224;28;45334;-61
2022/03/29 01:11:02;;;;;;;;;44.25;34.00;;;;;15.64;40.60;100941.22;4976925;28;45444;-61
2022/03/29 01:13:28;;;;;;;;;45.00;34.00;;;;;15.60;41.15;100942.25;4977323;28;45243;-61
2022/03/29 01:15:54;;;;;;;;;45.00;32.25;;;;;15.56;40.47;100946.75;4977252;28;45280;-61
2022/03/29 01:18:20;;;;;;;;;41.00;30.50;;;;;15.53;40.55;100937.28;4977074;28;45302;-61
2022/03/29 01:20:49;;;;;;;;;35.25;27.50;;;;;15.53;41.10;100949.53;4973941;28;45476;-61
2022/03/29 01:23:15;;;;;;;;;38.50;32.00;;;;;15.49;40.33;100935.72;4973050;28;45406;-60
2022/03/29 01:25:43;;;;;;;;;41.00;32.25;;;;;15.50;40.56;100936.56;4980023;28;45293;-60
2022/03/29 01:28:11;;;;;;;;;35.75;30.25;;;;;15.48;40.34;100925.31;4979841;28;45323;-60
2022/03/29 01:30:37;;;;;;;;;40.75;25.50;;;;;15.45;40.42;100923.69;4967140;28;45366;-61
2022/03/29 01:33:06;;;;;;;;;36.75;27.50;;;;;15.45;40.69;100933.31;4978290;28;45334;-60
2022/03/29 01:35:32;;;;;;;;;25.50;25.00;;;;;15.38;40.27;100918.75;4978487;28;45443;-61
2022/03/29 01:37:58;;;;;;;;;39.00;32.00;;;;;15.36;40.47;100918.84;4979826;28;45185;-59
2022/03/29 01:40:25;;;;;;;;;34.25;28.25;;;;;15.35;40.37;100918.91;4979827;28;45215;-59
2022/03/29 01:42:57;;;;;;;;;30.25;25.00;;;;;15.32;40.18;100919.03;4979756;28;46056;-59
2022/03/29 01:45:26;;;;;;;;;39.00;32.00;;;;;15.32;40.15;100917.28;4980156;28;45181;-59
2022/03/29 01:47:52;;;;;;;;;36.00;27.00;;;;;15.31;40.03;100905.09;4979103;28;45584;-59
2022/03/29 01:50:17;;;;;;;;;33.50;28.50;;;;;15.33;39.69;100911.13;4979645;28;45345;-59
2022/03/29 01:52:45;;;;;;;;;36.50;26.25;;;;;15.32;39.59;100912.03;4979197;28;45423;-61
2022/03/29 01:55:12;;;;;;;;;34.50;24.25;;;;;15.31;39.37;100907.72;4977740;28;45575;-61
2022/03/29 01:57:38;;;;;;;;;35.75;25.50;;;;;15.31;39.48;100904.25;4976150;28;45367;-61
2022/03/29 02:02:49;;;;;;;;;33.75;24.50;;;;;15.30;39.32;100887.69;4979239;28;45437;-61
2022/03/29 02:05:15;;;;;;;;;39.50;26.00;;;;;15.31;39.17;100889.38;4979653;28;45372;-61
2022/03/29 02:07:40;;;;;;;;;31.50;24.25;;;;;15.31;38.91;100884.16;4979151;28;45394;-60
2022/03/29 02:10:06;;;;;;;;;30.00;23.50;;;;;15.31;38.99;100865.81;4988203;28;46017;-60
2022/03/29 02:12:34;;;;;;;;;32.75;31.25;;;;;15.31;38.98;100873.69;4974947;28;45465;-61
2022/03/29 02:15:00;;;;;;;;;36.50;26.75;;;;;15.31;38.83;100863.22;4969747;28;45322;-61
2022/03/29 02:17:25;;;;;;;;;29.25;24.00;;;;;15.31;38.34;100870.22;4971307;28;45663;-60
2022/03/29 02:19:50;;;;;;;;;35.25;23.50;;;;;15.29;38.54;100862.44;4968277;28;46480;-60
2022/03/29 02:22:16;;;;;;;;;28.00;23.25;;;;;15.28;38.39;100865.13;4970130;28;45212;-60
2022/03/29 02:24:42;;;;;;;;;36.75;23.75;;;;;15.24;38.31;100851.31;4979562;28;45322;-60
2022/03/29 02:27:08;;;;;;;;;37.00;33.25;;;;;15.30;38.72;100852.81;4979187;28;45433;-60
2022/03/29 02:29:33;;;;;;;;;28.25;23.75;;;;;15.31;38.28;100846.66;4969138;28;45324;-60
2022/03/29 02:31:59;;;;;;;;;35.50;26.75;;;;;15.30;38.43;100843.19;4975226;28;45270;-60
2022/03/29 02:34:25;;;;;;;;;29.75;25.50;;;;;15.29;38.11;100832.78;4979400;28;45357;-60
2022/03/29 02:36:50;;;;;;;;;35.00;24.50;;;;;15.26;38.07;100825.91;4978859;28;45474;-60
2022/03/29 02:39:16;;;;;;;;;26.50;21.00;;;;;15.21;37.81;100814.78;4979243;28;45263;-61
2022/03/29 02:41:41;;;;;;;;;28.75;19.25;;;;;15.27;38.02;100826.75;4978950;28;45397;-60
2022/03/29 02:44:07;;;;;;;;;27.75;23.00;;;;;15.20;37.78;100820.94;4979464;28;45288;-60
2022/03/29 02:46:34;;;;;;;;;39.25;28.25;;;;;15.14;37.74;100813.38;4977707;28;45885;-60
2022/03/29 02:49:00;;;;;;;;;36.50;24.00;;;;;15.11;37.92;100813.50;4979097;28;45363;-60
2022/03/29 02:51:25;;;;;;;;;25.50;22.50;;;;;15.11;37.93;100809.13;4978568;28;45395;-61
2022/03/29 02:53:50;;;;;;;;;37.50;24.00;;;;;15.13;37.96;100809.91;4978919;28;45293;-61
2022/03/29 02:56:16;;;;;;;;;25.75;21.75;;;;;15.14;38.11;100800.28;4978704;28;45510;-60
2022/03/29 02:58:41;;;;;;;;;27.25;25.50;;;;;15.15;38.10;100800.22;4979114;28;46241;-60
2022/03/29 03:01:06;;;;;;;;;34.00;24.50;;;;;15.16;37.84;100799.28;4978715;28;45225;-60
2022/03/29 03:03:32;;;;;;;;;25.50;23.25;;;;;15.16;37.64;100795.81;4979133;28;45333;-60
2022/03/29 03:05:58;;;;;;;;;11.75;7.50;;;;;15.11;37.79;100788.19;4977199;28;45338;-60
2022/03/29 03:08:23;;;;;;;;;30.75;23.50;;;;;15.16;37.71;100803.69;4976759;28;46191;-60
2022/03/29 03:10:49;;;;;;;;;30.50;24.50;;;;;15.11;37.89;100801.28;4975652;28;45496;-60
2022/03/29 03:13:15;;;;;;;;;34.75;26.00;;;;;15.12;37.83;100794.28;4977024;28;45446;-60
2022/03/29 03:15:41;;;;;;;;;32.50;26.25;;;;;15.12;37.54;100795.13;4976860;28;46358;-60
2022/03/29 03:18:09;;;;;;;;;20.75;20.25;;;;;15.17;37.91;100787.03;4976845;28;45733;-60
2022/03/29 03:20:35;;;;;;;;;27.25;21.50;;;;;15.19;37.91;100786.06;4978946;28;45164;-60
2022/03/29 03:23:01;;;;;;;;;27.75;22.75;;;;;15.13;37.75;100783.72;4978795;28;45401;-60
2022/03/29 03:25:27;;;;;;;;;19.50;18.00;;;;;15.14;37.94;100803.75;4978629;28;45266;-60
2022/03/29 03:27:53;;;;;;;;;27.75;20.75;;;;;15.11;38.22;100795.19;4978564;28;46025;-60
2022/03/29 03:30:19;;;;;;;;;30.25;26.50;;;;;15.15;38.12;100786.28;4965464;28;45591;-60
2022/03/29 03:32:45;;;;;;;;;21.50;19.75;;;;;15.18;38.38;100784.34;4978580;28;45426;-60
2022/03/29 03:35:12;;;;;;;;;29.25;24.00;;;;;15.22;38.39;100777.25;4978245;28;45360;-60
2022/03/29 03:37:38;;;;;;;;;28.75;22.75;;;;;15.23;38.57;100770.22;4978244;28;46117;-60
2022/03/29 03:40:05;;;;;;;;;27.00;24.50;;;;;15.22;38.40;100779.84;4978245;28;45878;-60
2022/03/29 03:42:30;;;;;;;;;34.00;22.50;;;;;15.18;38.56;100776.50;4978589;28;45346;-60
2022/03/29 03:44:57;;;;;;;;;19.00;19.00;;;;;15.18;38.13;100773.03;4977987;28;45215;-60
2022/03/29 03:47:23;;;;;;;;;27.00;21.75;;;;;15.16;38.43;100757.41;4978186;28;45425;-60
2022/03/29 03:49:48;;;;;;;;;32.25;21.75;;;;;15.17;38.50;100760.88;4978203;28;45211;-60
2022/03/29 03:52:13;;;;;;;;;29.00;24.50;;;;;15.17;38.52;100758.25;4976799;28;45369;-61
2022/03/29 03:54:39;;;;;;;;;23.25;17.00;;;;;15.19;38.75;100762.50;4972583;28;45308;-61
2022/03/29 03:57:05;;;;;;;;;35.75;25.50;;;;;15.22;38.49;100764.16;4958801;28;46357;-61
2022/03/29 03:59:31;;;;;;;;;19.00;19.00;;;;;15.20;38.63;100758.09;4958617;28;45417;-61
2022/03/29 04:01:56;;;;;;;;;30.75;24.25;;;;;15.20;38.41;100752.88;4958854;28;45322;-61
2022/03/29 04:04:22;;;;;;;;;28.00;19.25;;;;;15.16;38.80;100746.09;4958653;28;46655;-59
2022/03/29 04:06:47;;;;;;;;;27.75;22.50;;;;;15.07;39.66;100747.38;4966857;28;47135;-62
2022/03/29 04:09:13;;;;;;;;;31.50;24.50;;;;;14.98;39.49;100744.31;4960377;28;45263;-61
2022/03/29 04:11:38;;;;;;;;;48.00;32.50;;;;;14.89;39.58;100730.75;4959002;28;45272;-60
2022/03/29 04:14:04;;;;;;;;;36.25;28.50;;;;;14.90;39.93;100742.91;4958354;28;45384;-61
2022/03/29 04:16:30;;;;;;;;;36.00;28.50;;;;;14.89;39.98;100748.22;4958455;28;45965;-60
2022/03/29 04:18:55;;;;;;;;;34.75;31.50;;;;;14.88;40.09;100741.28;4958417;28;45296;-60
2022/03/29 04:21:21;;;;;;;;;36.75;29.00;;;;;14.85;39.82;100734.41;4967263;28;45217;-61
2022/03/29 04:23:46;;;;;;;;;32.25;30.25;;;;;14.81;39.93;100724.13;4977499;28;45146;-61
2022/03/29 04:26:12;;;;;;;;;30.00;25.75;;;;;14.77;40.64;100725.19;4977841;28;46471;-61
2022/03/29 04:28:37;;;;;;;;;24.50;20.25;;;;;14.74;40.74;100722.72;4974893;27;45626;-61
2022/03/29 04:31:03;;;;;;;;;30.25;21.50;;;;;14.67;40.78;100724.78;4978098;28;45537;-60
2022/03/29 04:33:29;;;;;;;;;33.00;26.00;;;;;14.65;41.06;100718.75;4977298;28;45264;-60
2022/03/29 04:35:55;;;;;;;;;29.00;24.50;;;;;14.64;41.28;100724.91;4977707;28;45307;-60
2022/03/29 04:38:23;;;;;;;;;30.50;26.75;;;;;14.59;41.24;100725.09;4977353;28;45920;-60
2022/03/29 04:40:49;;;;;;;;;34.50;27.50;;;;;14.60;41.27;100726.78;4977886;28;45244;-61
2022/03/29 04:43:14;;;;;;;;;27.75;22.00;;;;;14.64;41.85;100729.28;4977461;28;45363;-60
2022/03/29 04:45:40;;;;;;;;;32.50;25.25;;;;;14.63;41.50;100722.38;4977619;28;45940;-60
2022/03/29 04:48:06;;;;;;;;;31.75;25.75;;;;;14.66;41.85;100717.00;4977046;28;45243;-61
2022/03/29 04:50:32;;;;;;;;;24.50;21.25;;;;;14.67;41.36;100709.06;4977371;28;45431;-60
2022/03/29 04:52:57;;;;;;;;;30.75;27.25;;;;;14.69;41.92;100702.00;4976501;28;45366;-59
2022/03/29 04:55:22;;;;;;;;;34.25;27.00;;;;;14.72;41.44;100706.25;4976049;28;46010;-58
2022/03/29 04:57:49;;;;;;;;;33.00;25.75;;;;;14.71;41.73;100700.16;4975893;28;45918;-59
2022/03/29 05:00:16;;;;;;;;;32.50;29.50;;;;;14.73;41.80;100706.19;4977401;28;45409;-59
2022/03/29 05:02:43;;;;;;;;;33.00;27.00;;;;;14.73;41.62;100703.56;4976927;28;45564;-60
2022/03/29 05:05:10;;;;;;;;;27.75;25.00;;;;;14.71;41.84;100694.09;4977255;28;47500;-60
2022/03/29 05:07:36;;;;;;;;;16.75;7.50;;;;;14.74;42.24;100697.41;4977028;28;45786;-60
2022/03/29 05:10:03;;;;;;;;;31.50;25.75;;;;;14.78;42.12;100709.44;4977577;28;45450;-59
2022/03/29 05:12:28;;;;;;;;;35.25;27.25;;;;;14.79;42.20;100713.75;4977089;28;45286;-59
2022/03/29 05:14:54;;;;;;;;;38.50;26.00;;;;;14.80;42.21;100715.44;4976825;28;46052;-62
2022/03/29 05:17:19;;;;;;;;;30.25;27.25;;;;;14.76;42.43;100718.25;4979666;28;45388;-62
2022/03/29 05:19:44;;;;;;;;;34.50;27.50;;;;;14.73;43.27;100711.41;4984763;28;45520;-60
2022/03/29 05:22:10;;;;;;;;;32.75;23.25;;;;;14.70;42.63;100708.94;4977448;28;45319;-61
2022/03/29 05:24:35;;;;;;;;;25.50;23.75;;;;;14.71;42.45;100715.03;4976932;28;45350;-61
2022/03/29 05:27:00;;;;;;;;;32.50;25.00;;;;;14.60;43.08;100716.31;4976375;28;45348;-61
2022/03/29 05:29:28;;;;;;;;;31.50;26.50;;;;;14.67;42.71;100727.38;4977948;28;45278;-60
2022/03/29 05:31:53;;;;;;;;;33.00;25.00;;;;;14.69;42.32;100725.56;4976273;28;45604;-61
2022/03/29 05:34:19;;;;;;;;;29.50;22.50;;;;;14.70;42.45;100723.78;4975671;28;45395;-59
2022/03/29 05:36:45;;;;;;;;;32.25;26.75;;;;;14.69;42.19;100717.72;4973120;28;45396;-60
2022/03/29 05:39:13;;;;;;;;;32.00;27.50;;;;;14.71;42.31;100713.25;4976549;28;45319;-60
2022/03/29 05:41:39;;;;;;;;;30.75;23.00;;;;;14.72;43.00;100724.56;4976312;28;45309;-60
2022/03/29 05:44:04;;;;;;;;;32.75;28.00;;;;;14.69;42.43;100717.72;4975987;28;45437;-64
2022/03/29 05:49:13;;;;;;;;;33.25;24.00;;;;;14.62;43.08;100721.53;4976519;28;45174;-64
2022/03/29 05:51:39;;;;;;;;;36.75;27.25;;;;;14.66;42.75;100714.38;4975778;28;45304;-62
2022/03/29 05:54:06;;;;;;;;;33.75;25.00;;;;;14.68;42.39;100713.41;4972796;28;45410;-63
2022/03/29 05:56:31;;;;;;;;;28.75;23.00;;;;;14.70;42.75;100708.94;4964778;28;45516;-58
2022/03/29 05:58:57;;;;;;;;;35.00;27.25;;;;;14.74;42.67;100709.66;4965457;28;45248;-58
2022/03/29 06:01:22;;;;;;;;;42.50;27.25;;;;;14.74;42.94;100714.88;4965058;28;45287;-57
2022/03/29 06:03:49;;;;;;;;;34.50;24.50;;;;;14.74;42.77;100707.88;4966076;28;45422;-57
2022/03/29 06:06:14;;;;;;;;;35.00;26.50;;;;;14.78;42.69;100698.13;4965598;28;45794;-57
2022/03/29 06:08:40;;;;;;;;;31.75;24.00;;;;;14.78;42.49;100691.13;4967294;28;45636;-58
2022/03/29 06:11:07;;;;;;;;;24.00;19.75;;;;;14.79;42.74;100695.44;4967683;28;45529;-58
2022/03/29 06:13:33;;;;;;;;;28.75;21.00;;;;;14.76;42.37;100689.50;4968786;28;46965;-63
2022/03/29 06:15:59;;;;;;;;;24.50;23.50;;;;;14.79;42.84;100705.88;4969238;28;45801;-59
2022/03/29 06:18:25;;;;;;;;;27.75;24.00;;;;;14.79;43.16;100712.91;4969803;28;45351;-58
2022/03/29 06:20:51;;;;;;;;;33.75;24.25;;;;;14.81;42.64;100711.91;4967451;28;45339;-58
2022/03/29 06:23:17;;;;;;;;;31.50;24.50;;;;;14.87;42.55;100702.94;4968508;28;45478;-58
2022/03/29 06:25:42;;;;;;;;;24.25;23.25;;;;;14.88;42.45;100696.78;4967835;28;45297;-59
2022/03/29 06:28:10;;;;;;;;;40.50;30.25;;;;;14.89;42.27;100701.09;4969272;28;45473;-58
2022/03/29 06:30:36;;;;;;;;;36.75;25.75;;;;;14.94;42.31;100712.19;4969962;27;45352;-62
2022/03/29 06:33:02;;;;;;;;;33.00;24.25;;;;;15.02;42.27;100704.88;4967024;28;45341;-61
2022/03/29 06:35:28;;;;;;;;;36.00;27.50;;;;;15.07;41.78;100712.50;4968020;28;45593;-62
2022/03/29 06:37:55;;;;;;;;;43.00;33.00;;;;;15.04;41.99;100734.44;4969061;28;45460;-61
2022/03/29 06:40:22;;;;;;;;;26.00;18.00;;;;;15.04;42.01;100739.66;4968547;28;45559;-61
2022/03/29 06:42:52;;;;;;;;;33.50;25.75;;;;;15.08;41.93;100748.22;4967068;28;46405;-61
2022/03/29 06:45:18;;;;;;;;;38.75;29.75;;;;;15.15;41.80;100747.00;4967686;28;45315;-61
2022/03/29 06:47:43;;;;;;;;;35.50;26.75;;;;;15.21;41.73;100736.25;4967737;28;45479;-60
2022/03/29 06:50:10;;;;;;;;;36.75;29.00;;;;;15.28;41.63;100740.28;4966291;28;45517;-61
2022/03/29 06:52:36;;;;;;;;;32.75;27.75;;;;;15.32;41.60;100741.84;4968818;28;45845;-61
2022/03/29 06:55:03;;;;;;;;;38.00;26.75;;;;;15.35;41.34;100743.47;4966582;28;45402;-62
2022/03/29 06:57:28;;;;;;;;;35.50;28.00;;;;;15.41;41.15;100735.31;4966646;28;45281;-61
2022/03/29 06:59:54;;;;;;;;;35.50;28.75;;;;;15.46;41.46;100731.56;4967979;28;45298;-59
2022/03/29 07:02:19;;;;;;;;;35.25;29.50;;;;;15.53;40.79;100734.72;4967185;28;45950;-70
2022/03/29 07:04:45;;;;;;;;;32.00;24.25;;;;;15.58;40.92;100729.25;4968377;28;45231;-60
2022/03/29 07:07:10;;;;;;;;;35.25;26.75;;;;;15.63;40.81;100732.56;4966930;28;45488;-58
2022/03/29 07:12:20;;;;;;;;;36.25;28.75;;;;;15.65;40.41;100721.09;4969927;28;45383;-58
2022/03/29 07:14:46;;;;;;;;;44.00;31.25;;;;;15.68;40.53;100704.38;4968086;28;45475;-58
2022/03/29 07:17:13;;;;;;;;;30.50;20.75;;;;;15.73;40.49;100710.22;4968323;28;45550;-58
2022/03/29 07:19:39;;;;;;;;;35.25;29.00;;;;;15.71;40.39;100704.22;4965683;28;45445;-58
2022/03/29 07:22:05;;;;;;;;;41.50;32.00;;;;;15.72;40.53;100711.16;4969401;28;46311;-58
2022/03/29 07:24:30;;;;;;;;;32.25;27.00;;;;;15.74;41.06;100704.06;4967784;28;45466;-58
2022/03/29 07:26:56;;;;;;;;;42.00;30.00;;;;;15.69;41.37;100703.44;4967429;28;45402;-58
2022/03/29 07:29:21;;;;;;;;;36.25;27.75;;;;;15.63;41.37;100704.59;4969404;28;45327;-57
2022/03/29 07:31:47;;;;;;;;;37.25;32.00;;;;;15.58;41.35;100709.16;4974281;28;45319;-58
2022/03/29 07:34:13;;;;;;;;;36.00;28.75;;;;;15.56;41.36;100707.53;4972313;28;45713;-58
2022/03/29 07:36:38;;;;;;;;;38.25;27.25;;;;;15.56;41.27;100705.75;4969974;28;45823;-58
2022/03/29 07:39:04;;;;;;;;;37.75;30.50;;;;;15.54;41.35;100694.50;4967415;28;45291;-58
2022/03/29 07:41:30;;;;;;;;;34.00;29.00;;;;;15.53;41.55;100696.28;4966281;28;45190;-58
2022/03/29 07:43:56;;;;;;;;;39.50;34.25;;;;;15.53;41.79;100701.53;4968176;28;45721;-57
2022/03/29 07:46:21;;;;;;;;;31.75;27.00;;;;;15.53;42.06;100690.19;4970126;28;45616;-57
2022/03/29 07:48:47;;;;;;;;;35.00;30.75;;;;;15.55;41.74;100683.13;4967787;28;45255;-58
2022/03/29 07:51:12;;;;;;;;;33.75;31.75;;;;;15.57;41.67;100689.13;4965486;28;46819;-57
2022/03/29 07:53:38;;;;;;;;;38.75;30.00;;;;;15.59;41.88;100689.06;4967582;28;45390;-57
2022/03/29 07:56:04;;;;;;;;;35.50;28.75;;;;;15.59;41.80;100689.06;4969863;28;45231;-58
2022/03/29 07:58:30;;;;;;;;;40.00;31.75;;;;;15.60;41.93;100690.78;4966884;28;45465;-58
2022/03/29 08:00:55;;;;;;;;;38.50;30.25;;;;;15.62;41.55;100692.41;4968581;28;45296;-58
2022/03/29 08:03:21;;;;;;;;;34.25;28.00;;;;;15.63;41.98;100680.16;4968088;28;45423;-58
2022/03/29 08:05:48;;;;;;;;;40.00;32.50;;;;;15.68;42.09;100688.66;4968597;28;45458;-58
2022/03/29 08:08:15;;;;;;;;;38.25;29.50;;;;;15.72;41.70;100682.31;4966419;28;45261;-59
2022/03/29 08:10:42;;;;;;;;;35.75;29.75;;;;;15.77;41.47;100683.78;4968679;28;46110;-58
2022/03/29 08:13:10;;;;;;;;;32.75;24.00;;;;;15.82;41.57;100684.41;4966048;28;45454;-58
2022/03/29 08:15:39;;;;;;;;;37.75;26.75;;;;;15.86;41.47;100681.66;4966465;28;45277;-58
2022/03/29 08:18:05;;;;;;;;;42.50;32.00;;;;;15.87;41.80;100678.94;4972618;28;45371;-58
2022/03/29 08:20:30;;;;;;;;;38.75;28.25;;;;;15.89;41.62;100682.34;4969666;28;46222;-58
2022/03/29 08:23:00;;;;;;;;;39.75;31.50;;;;;15.90;42.07;100681.41;4966145;28;45240;-58
2022/03/29 08:25:27;;;;;;;;;47.00;29.50;;;;;15.90;41.93;100686.66;4968917;28;45394;-58
2022/03/29 08:27:55;;;;;;;;;33.75;27.25;;;;;15.94;41.86;100684.72;4965003;28;45539;-58
2022/03/29 08:30:21;;;;;;;;;38.75;30.50;;;;;16.02;42.05;100666.84;4966296;28;46193;-57
2022/03/29 08:32:46;;;;;;;;;44.25;33.25;;;;;16.11;41.87;100667.19;4968416;28;45409;-57
2022/03/29 08:35:12;;;;;;;;;43.75;34.00;;;;;16.20;42.05;100668.50;4968563;28;45432;-57
2022/03/29 08:37:39;;;;;;;;;39.75;29.75;;;;;16.28;41.94;100668.09;4966609;28;45429;-58
2022/03/29 08:40:12;;;;;;;;;36.50;31.25;;;;;16.36;42.04;100665.91;4966716;28;46375;-57
2022/03/29 08:42:39;;;;;;;;;45.75;33.50;;;;;16.47;41.79;100655.72;4968387;28;45895;-56
2022/03/29 08:45:07;;;;;;;;;36.50;29.50;;;;;16.58;41.70;100650.72;4967440;28;45489;-57
2022/03/29 08:47:33;;;;;;;;;46.75;35.25;;;;;16.67;41.78;100645.03;4964238;28;45394;-58
2022/03/29 08:49:58;;;;;;;;;47.25;34.25;;;;;16.79;41.64;100647.91;4977203;28;45471;-59
2022/03/29 08:52:24;;;;;;;;;41.50;30.50;;;;;16.89;41.74;100646.50;4977173;28;45276;-58
2022/03/29 08:54:50;;;;;;;;;40.50;31.50;;;;;16.93;42.12;100637.50;4977592;28;45692;-58
2022/03/29 08:57:16;;;;;;;;;43.75;32.50;;;;;16.99;41.88;100638.00;4977201;28;45405;-57
2022/03/29 08:59:42;;;;;;;;;40.50;34.50;;;;;17.09;41.74;100637.50;4977194;28;45991;-57
2022/03/29 09:02:13;;;;;;;;;34.50;27.25;;;;;17.09;41.56;100630.47;4977156;28;45876;-57
2022/03/29 09:04:39;;;;;;;;;33.50;28.25;;;;;17.11;41.48;100627.75;4977357;28;45294;-59
2022/03/29 09:07:05;;;;;;;;;45.25;33.00;;;;;17.11;41.48;100618.09;4977156;28;45521;-57
2022/03/29 09:09:40;;;;;;;;;39.50;31.75;;;;;17.15;41.55;100608.25;4977038;28;45923;-57
2022/03/29 09:12:21;;;;;;;;;40.50;32.50;;;;;17.15;41.74;100600.38;4977142;28;45207;-57
2022/03/29 09:14:55;;;;;;;;;42.00;34.25;;;;;17.15;41.66;100603.84;4977260;28;45287;-57
2022/03/29 09:17:28;;;;;;;;;45.00;31.75;;;;;17.22;41.61;100599.97;4969434;28;45377;-58
2022/03/29 09:19:55;;;;;;;;;39.50;31.75;;;;;17.30;41.11;100600.38;4983070;28;47079;-58
2022/03/29 09:22:42;;;;;;;;;41.00;32.00;;;;;17.39;41.12;100606.84;4977472;28;45385;-58
2022/03/29 09:25:10;;;;;;;;;51.50;35.25;;;;;17.43;40.97;100603.13;4977230;28;45357;-58
2022/03/29 09:27:58;;;;;;;;;39.75;33.25;;;;;17.49;41.01;100607.19;4976885;28;45166;-57
2022/03/29 09:30:26;;;;;;;;;34.75;27.50;;;;;17.52;40.66;100604.38;4977067;28;46117;-58
2022/03/29 09:32:54;;;;;;;;;36.00;31.50;;;;;17.51;40.76;100602.69;4976707;28;45978;-57
2022/03/29 09:35:20;;;;;;;;;43.75;32.00;;;;;17.54;40.92;100600.72;4976488;28;45279;-58
2022/03/29 09:37:46;;;;;;;;;35.50;23.25;;;;;17.57;40.71;100599.69;4976590;28;45468;-57
2022/03/29 09:40:12;;;;;;;;;46.25;34.00;;;;;17.61;40.82;100591.53;4976476;28;46080;-66
2022/03/29 09:42:42;;;;;;;;;40.25;33.25;;;;;17.71;40.88;100594.50;4979004;28;45776;-57
2022/03/29 09:45:09;;;;;;;;;48.00;35.25;;;;;17.80;40.54;100600.97;4979690;28;45399;-58
2022/03/29 09:47:34;;;;;;;;;31.50;20.75;;;;;17.80;40.25;100599.19;4979493;28;45455;-59
2022/03/29 09:50:09;;;;;;;;;44.00;34.50;;;;;17.90;40.29;100591.63;4967522;28;45361;-57
2022/03/29 09:52:42;;;;;;;;;42.50;34.00;;;;;18.02;40.26;100595.28;4978180;28;45330;-58
2022/03/29 09:55:27;;;;;;;;;42.25;29.50;;;;;18.18;40.21;100596.03;4979085;28;45326;-59
2022/03/29 09:57:55;;;;;;;;;41.75;30.50;;;;;18.41;40.03;100592.81;4963589;28;45684;-59
2022/03/29 10:00:39;;;;;;;;;20.00;14.00;;;;;18.69;39.80;100588.50;4968525;28;45331;-57
2022/03/29 10:03:09;;;;;;;;;44.25;34.25;;;;;18.95;39.63;100581.56;4978575;28;45699;-58
2022/03/29 10:05:37;;;;;;;;;42.00;33.75;;;;;19.18;39.43;100582.69;4978941;28;45269;-59
2022/03/29 10:10:50;;;;;;;;;38.50;32.50;;;;;19.35;38.39;100571.91;4978378;28;45829;-57
2022/03/29 10:13:23;;;;;;;;;49.25;36.50;;;;;19.29;37.89;100564.41;4978550;28;45268;-58
2022/03/29 10:15:49;;;;;;;;;41.00;34.00;;;;;19.28;38.08;100568.84;4978675;27;45366;-56
2022/03/29 10:18:15;;;;;;;;;45.75;34.50;;;;;19.31;37.55;100566.00;4989609;28;45298;-60
2022/03/29 10:20:41;;;;;;;;;45.25;34.75;;;;;19.39;38.11;100563.69;4980467;28;46993;-59
2022/03/29 10:23:07;;;;;;;;;45.50;33.25;;;;;19.51;37.75;100564.66;4978373;28;45303;-60
2022/03/29 10:25:33;;;;;;;;;40.50;31.00;;;;;19.64;37.43;100548.91;4978838;28;45421;-60
2022/03/29 10:28:01;;;;;;;;;44.75;31.00;;;;;19.73;37.73;100546.47;4978880;28;45293;-63
2022/03/29 10:30:41;;;;;;;;;41.50;33.75;;;;;19.76;37.45;100548.03;4978457;28;45908;-63
2022/03/29 10:33:26;;;;;;;;;39.50;30.75;;;;;19.87;37.49;100550.78;4977087;28;45400;-62
2022/03/29 10:36:08;;;;;;;;;40.25;31.50;;;;;19.84;36.57;100539.63;4969514;28;45219;-60
2022/03/29 10:38:43;;;;;;;;;40.25;30.25;;;;;19.91;36.13;100536.44;4977873;28;45615;-60
2022/03/29 10:41:29;;;;;;;;;46.00;32.00;;;;;20.10;36.70;100529.88;4978207;28;46216;-60
2022/03/29 10:44:14;;;;;;;;;39.00;31.75;;;;;20.32;36.60;100527.41;4967185;28;45381;-60
2022/03/29 10:46:49;;;;;;;;;40.75;30.25;;;;;20.47;35.50;100523.69;4977778;28;45299;-60
2022/03/29 10:49:20;;;;;;;;;47.75;35.25;;;;;20.55;36.25;100531.06;4977437;28;45360;-60
2022/03/29 10:52:06;;;;;;;;;38.50;32.00;;;;;20.55;35.23;100525.78;4963209;28;46420;-60
2022/03/29 10:54:37;;;;;;;;;44.50;33.50;;;;;20.50;35.53;100527.91;4945360;28;45804;-60
2022/03/29 10:57:24;;;;;;;;;43.25;32.75;;;;;20.53;35.83;100525.03;4967853;28;45269;-61
2022/03/29 11:00:17;;;;;;;;;46.50;36.00;;;;;20.52;35.39;100518.91;4968020;28;45596;-61
2022/03/29 11:03:11;;;;;;;;;41.25;33.25;;;;;20.54;35.35;100508.25;4966597;28;47320;-61
2022/03/29 11:06:07;;;;;;;;;42.00;33.75;;;;;20.68;35.18;100509.91;4967505;28;45594;-61
2022/03/29 11:08:34;;;;;;;;;45.75;34.00;;;;;20.81;35.57;100508.84;4968479;28;45301;-61
2022/03/29 11:11:01;;;;;;;;;34.00;26.25;;;;;20.88;35.58;100502.19;4966816;28;45420;-61
2022/03/29 11:13:27;;;;;;;;;48.00;32.67;;;;;20.91;34.90;100503.75;4966879;28;47251;-61
2022/03/29 11:15:53;;;;;;;;;41.25;30.25;;;;;21.02;35.20;100506.41;4966521;28;45352;-61
2022/03/29 11:18:38;;;;;;;;;44.75;32.50;;;;;21.12;34.87;100501.31;4968670;28;45454;-61
2022/03/29 11:21:05;;;;;;;;;43.50;32.00;;;;;21.23;34.74;100506.66;4969327;28;45411;-61